createdAt,value
2017-07-19T00:01:06.642Z,23.50
2017-07-19T00:03:34.136Z,23.50
2017-07-19T00:06:01.652Z,23.50
2017-07-19T00:08:29.650Z,23.50
2017-07-19T00:10:57.080Z,23.50
2017-07-19T00:13:24.581Z,23.60
2017-07-19T00:15:52.073Z,23.60
2017-07-19T00:18:19.639Z,23.60
2017-07-19T00:20:47.102Z,23.60
2017-07-19T00:23:14.611Z,23.60
2017-07-19T00:25:42.117Z,23.60
2017-07-19T00:28:09.641Z,23.60
2017-07-19T00:30:37.201Z,23.60
2017-07-19T00:33:04.683Z,23.60
2017-07-19T00:35:32.189Z,23.60
2017-07-19T00:37:59.704Z,23.60
2017-07-19T00:40:27.190Z,23.60
2017-07-19T00:42:54.667Z,23.60
2017-07-19T00:45:22.188Z,23.50
2017-07-19T00:47:49.653Z,23.50
2017-07-19T00:50:17.148Z,23.50
2017-07-19T00:52:44.660Z,23.40
2017-07-19T00:55:12.158Z,23.40
2017-07-19T00:57:39.702Z,23.40
2017-07-19T01:00:07.234Z,23.30
2017-07-19T01:02:35.123Z,23.20
2017-07-19T01:05:02.652Z,23.20
2017-07-19T01:07:30.197Z,23.20
2017-07-19T01:09:57.676Z,23.20
2017-07-19T01:12:25.172Z,23.10
2017-07-19T01:14:52.708Z,23.10
2017-07-19T01:17:20.203Z,23.10
2017-07-19T01:19:47.702Z,23.10
2017-07-19T01:22:15.201Z,23.10
2017-07-19T01:24:42.678Z,23.10
2017-07-19T01:27:10.595Z,23.10
2017-07-19T01:29:38.095Z,23.10
2017-07-19T01:32:06.595Z,23.10
2017-07-19T01:34:34.523Z,23.10
2017-07-19T01:37:02.015Z,23.10
2017-07-19T01:39:29.493Z,23.10
2017-07-19T01:41:57.407Z,23.10
2017-07-19T01:44:24.870Z,23.10
2017-07-19T01:46:52.355Z,23.10
2017-07-19T01:49:19.855Z,23.10
2017-07-19T01:51:47.734Z,23.10
2017-07-19T01:54:15.752Z,23.10
2017-07-19T01:56:43.240Z,23.10
2017-07-19T01:59:10.694Z,23.10
2017-07-19T02:01:38.169Z,23.10
2017-07-19T02:04:05.665Z,23.00
2017-07-19T02:06:33.166Z,23.00
2017-07-19T02:09:00.652Z,23.00
2017-07-19T02:11:28.147Z,23.00
2017-07-19T02:13:55.633Z,23.00
2017-07-19T02:16:23.217Z,22.90
2017-07-19T02:18:50.721Z,22.90
2017-07-19T02:21:18.604Z,22.90
2017-07-19T02:23:46.120Z,22.90
2017-07-19T02:26:13.615Z,22.80
2017-07-19T02:28:41.109Z,22.80
2017-07-19T02:31:08.599Z,22.80
2017-07-19T02:33:36.091Z,22.70
2017-07-19T02:36:04.606Z,22.70
2017-07-19T02:38:32.071Z,22.70
2017-07-19T02:40:59.578Z,22.70
2017-07-19T02:43:28.306Z,22.70
2017-07-19T02:45:56.165Z,22.70
2017-07-19T02:48:23.678Z,22.70
2017-07-19T02:50:51.171Z,22.60
2017-07-19T02:53:18.642Z,22.60
2017-07-19T02:55:46.173Z,22.60
2017-07-19T02:58:13.656Z,22.60
2017-07-19T03:00:41.173Z,22.60
2017-07-19T03:03:10.844Z,22.60
2017-07-19T03:05:38.335Z,22.60
2017-07-19T03:08:06.207Z,22.60
2017-07-19T03:10:34.110Z,22.50
2017-07-19T03:13:01.600Z,22.50
2017-07-19T03:15:29.091Z,22.50
2017-07-19T03:17:57.000Z,22.50
2017-07-19T03:20:24.478Z,22.50
2017-07-19T03:22:51.970Z,22.50
2017-07-19T03:25:20.380Z,22.40
2017-07-19T03:27:48.248Z,22.40
2017-07-19T03:30:15.753Z,22.40
2017-07-19T03:32:43.264Z,22.30
2017-07-19T03:35:11.161Z,22.30
2017-07-19T03:37:39.033Z,22.30
2017-07-19T03:40:06.986Z,22.30
2017-07-19T03:42:34.470Z,22.30
2017-07-19T03:45:02.451Z,22.30
2017-07-19T03:47:30.380Z,22.30
2017-07-19T03:49:57.871Z,22.30
2017-07-19T03:52:25.853Z,22.30
2017-07-19T03:54:53.787Z,22.30
2017-07-19T03:57:21.243Z,22.30
2017-07-19T03:59:48.751Z,22.30
2017-07-19T04:02:16.657Z,22.30
2017-07-19T04:04:44.138Z,22.30
2017-07-19T04:07:11.626Z,22.30
2017-07-19T04:09:39.194Z,22.30
2017-07-19T04:12:07.174Z,22.30
2017-07-19T04:14:34.649Z,22.30
2017-07-19T04:17:02.540Z,22.30
2017-07-19T04:19:30.067Z,22.30
2017-07-19T04:21:57.540Z,22.30
2017-07-19T04:24:25.435Z,22.40
2017-07-19T04:26:52.945Z,22.40
2017-07-19T04:29:21.345Z,22.40
2017-07-19T04:31:48.830Z,22.40
2017-07-19T04:34:16.327Z,22.40
2017-07-19T04:36:43.837Z,22.40
2017-07-19T04:39:11.349Z,22.40
2017-07-19T04:41:38.825Z,22.40
2017-07-19T04:44:06.308Z,22.40
2017-07-19T04:46:33.858Z,22.50
2017-07-19T04:49:01.341Z,22.50
2017-07-19T04:51:28.814Z,22.50
2017-07-19T04:53:56.341Z,22.50
2017-07-19T04:56:23.824Z,22.50
2017-07-19T04:58:51.300Z,22.60
2017-07-19T05:01:19.281Z,22.60
2017-07-19T05:03:47.152Z,22.60
2017-07-19T05:06:15.035Z,22.60
2017-07-19T05:08:42.941Z,22.60
2017-07-19T05:11:10.429Z,22.60
2017-07-19T05:13:37.873Z,22.70
2017-07-19T05:16:05.387Z,22.70
2017-07-19T05:18:33.263Z,22.80
2017-07-19T05:21:01.194Z,22.80
2017-07-19T05:23:28.701Z,22.80
2017-07-19T05:25:56.636Z,22.90
2017-07-19T05:28:24.125Z,22.90
2017-07-19T05:30:52.073Z,23.00
2017-07-19T05:33:19.582Z,23.00
2017-07-19T05:35:47.081Z,23.00
2017-07-19T05:38:14.576Z,23.10
2017-07-19T05:40:42.065Z,23.20
2017-07-19T05:43:09.932Z,23.30
2017-07-19T05:45:37.813Z,23.30
2017-07-19T05:48:05.270Z,23.30
2017-07-19T05:50:32.758Z,23.40
2017-07-19T05:53:00.254Z,23.40
2017-07-19T05:55:27.709Z,23.40
2017-07-19T05:57:55.177Z,23.50
2017-07-19T06:00:22.706Z,23.60
2017-07-19T06:02:50.533Z,23.60
2017-07-19T06:05:18.415Z,23.70
2017-07-19T06:07:46.301Z,23.80
2017-07-19T06:10:13.780Z,23.80
2017-07-19T06:12:41.287Z,23.80
2017-07-19T06:15:08.994Z,23.90
2017-07-19T06:17:36.446Z,24.00
2017-07-19T06:20:04.316Z,24.00
2017-07-19T06:22:32.218Z,24.10
2017-07-19T06:24:59.700Z,24.10
2017-07-19T06:27:27.184Z,24.20
2017-07-19T06:29:54.695Z,24.20
2017-07-19T06:32:22.185Z,24.20
2017-07-19T06:34:49.671Z,24.30
2017-07-19T06:37:17.193Z,24.30
2017-07-19T06:39:44.671Z,24.40
2017-07-19T06:42:12.154Z,24.50
2017-07-19T06:44:39.862Z,24.60
2017-07-19T06:47:07.835Z,24.70
2017-07-19T06:49:35.337Z,24.70
2017-07-19T06:52:02.861Z,24.80
2017-07-19T06:54:30.352Z,24.90
2017-07-19T06:56:57.847Z,25.00
2017-07-19T06:59:25.365Z,25.10
2017-07-19T07:01:52.844Z,25.10
2017-07-19T07:04:20.370Z,25.20
2017-07-19T07:06:48.268Z,25.30
2017-07-19T07:09:15.749Z,25.30
2017-07-19T07:11:43.294Z,25.40
2017-07-19T07:14:10.785Z,25.50
2017-07-19T07:16:38.694Z,25.60
2017-07-19T07:19:06.208Z,25.70
2017-07-19T07:21:33.723Z,25.80
2017-07-19T07:24:01.624Z,26.00
2017-07-19T07:26:29.167Z,26.00
2017-07-19T07:28:57.056Z,26.20
2017-07-19T07:31:24.542Z,26.20
2017-07-19T07:33:52.154Z,26.30
2017-07-19T07:36:19.640Z,26.30
2017-07-19T07:38:47.497Z,26.40
2017-07-19T07:41:15.040Z,26.40
2017-07-19T07:43:42.516Z,26.40
2017-07-19T07:46:09.994Z,26.50
2017-07-19T07:48:37.890Z,26.60
2017-07-19T07:51:05.375Z,26.60
2017-07-19T07:53:32.887Z,26.70
2017-07-19T07:56:01.091Z,26.80
2017-07-19T07:58:28.570Z,26.80
2017-07-19T08:00:56.044Z,26.90
2017-07-19T08:03:23.522Z,26.90
2017-07-19T08:05:51.019Z,26.90
2017-07-19T08:08:18.969Z,27.00
2017-07-19T08:10:46.868Z,27.00
2017-07-19T08:13:14.795Z,27.10
2017-07-19T08:15:42.681Z,27.20
2017-07-19T08:18:10.161Z,27.20
2017-07-19T08:20:38.053Z,27.30
2017-07-19T08:23:05.499Z,27.30
2017-07-19T08:25:32.984Z,27.40
2017-07-19T08:28:00.477Z,27.50
2017-07-19T08:30:27.971Z,27.50
2017-07-19T08:32:55.496Z,27.60
2017-07-19T08:35:22.982Z,27.70
2017-07-19T08:37:50.495Z,27.80
2017-07-19T08:40:18.023Z,27.80
2017-07-19T08:42:45.487Z,27.90
2017-07-19T08:45:13.653Z,28.00
2017-07-19T08:47:42.277Z,28.10
2017-07-19T08:50:09.740Z,28.20
2017-07-19T08:52:37.619Z,28.30
2017-07-19T08:55:05.962Z,28.30
2017-07-19T08:57:33.457Z,28.40
2017-07-19T09:00:01.319Z,28.60
2017-07-19T09:02:29.237Z,28.70
2017-07-19T09:04:56.710Z,28.60
2017-07-19T09:07:24.190Z,28.70
2017-07-19T09:09:51.710Z,28.80
2017-07-19T09:12:19.193Z,29.00
2017-07-19T09:14:46.690Z,29.10
2017-07-19T09:17:14.171Z,29.20
2017-07-19T09:19:42.063Z,29.50
2017-07-19T09:22:09.544Z,29.50
2017-07-19T09:24:37.082Z,29.70
2017-07-19T09:27:04.563Z,29.90
2017-07-19T09:29:32.074Z,30.10
2017-07-19T09:31:59.619Z,30.20
2017-07-19T09:34:27.188Z,30.40
2017-07-19T09:36:54.698Z,30.60
2017-07-19T09:39:22.230Z,31.00
2017-07-19T09:41:49.728Z,31.30
2017-07-19T09:44:17.209Z,31.60
2017-07-19T09:46:45.346Z,32.00
2017-07-19T09:49:13.554Z,32.80
2017-07-19T09:51:41.061Z,32.80
2017-07-19T09:54:08.602Z,33.20
2017-07-19T09:56:36.151Z,33.70
2017-07-19T09:59:03.681Z,34.10
2017-07-19T10:01:31.599Z,35.00
2017-07-19T10:03:59.837Z,35.00
2017-07-19T10:06:27.717Z,35.80
2017-07-19T10:08:55.728Z,36.20
2017-07-19T10:11:23.205Z,36.20
2017-07-19T10:13:50.764Z,36.60
2017-07-19T10:16:18.261Z,36.80
2017-07-19T10:18:45.718Z,36.80
2017-07-19T10:21:13.213Z,36.90
2017-07-19T10:23:41.216Z,36.70
2017-07-19T10:26:08.697Z,36.30
2017-07-19T10:28:36.187Z,35.80
2017-07-19T10:31:04.102Z,34.90
2017-07-19T10:33:31.604Z,34.90
2017-07-19T10:35:59.080Z,34.50
2017-07-19T10:38:26.665Z,34.10
2017-07-19T10:40:54.603Z,33.40
2017-07-19T10:43:22.082Z,33.40
2017-07-19T10:45:50.789Z,32.90
2017-07-19T10:48:18.674Z,32.70
2017-07-19T10:50:46.417Z,32.70
2017-07-19T10:53:14.328Z,32.50
2017-07-19T10:55:41.828Z,32.50
2017-07-19T10:58:09.298Z,32.40
2017-07-19T11:00:36.824Z,32.30
2017-07-19T11:03:04.295Z,32.20
2017-07-19T11:05:32.483Z,32.10
2017-07-19T11:07:59.995Z,32.10
2017-07-19T11:10:27.894Z,31.90
2017-07-19T11:12:55.367Z,31.90
2017-07-19T11:15:23.943Z,31.90
2017-07-19T11:17:51.458Z,31.80
2017-07-19T11:20:18.963Z,31.80
2017-07-19T11:22:46.500Z,31.70
2017-07-19T11:25:15.296Z,31.70
2017-07-19T11:27:42.960Z,31.70
2017-07-19T11:30:10.920Z,31.70
2017-07-19T11:32:38.419Z,31.70
2017-07-19T11:35:05.939Z,31.80
2017-07-19T11:37:33.482Z,31.80
2017-07-19T11:40:00.953Z,31.80
2017-07-19T11:42:28.489Z,31.80
2017-07-19T11:44:56.007Z,31.80
2017-07-19T11:47:24.560Z,31.90
2017-07-19T11:49:52.769Z,31.90
2017-07-19T11:52:20.720Z,31.90
2017-07-19T11:54:48.214Z,31.90
2017-07-19T11:57:15.688Z,31.90
2017-07-19T11:59:43.220Z,31.90
2017-07-19T12:02:10.759Z,32.00
2017-07-19T12:04:38.243Z,32.10
2017-07-19T12:07:05.777Z,32.10
2017-07-19T12:09:33.266Z,32.10
2017-07-19T12:12:01.538Z,32.20
2017-07-19T12:14:29.065Z,32.30
2017-07-19T12:16:56.556Z,32.30
2017-07-19T12:19:24.033Z,32.30
2017-07-19T12:21:51.771Z,32.40
2017-07-19T12:24:19.544Z,32.40
2017-07-19T12:26:47.081Z,32.50
2017-07-19T12:29:14.606Z,32.50
2017-07-19T12:31:42.100Z,32.60
2017-07-19T12:34:09.596Z,32.60
2017-07-19T12:36:37.156Z,32.70
2017-07-19T12:39:04.622Z,32.70
2017-07-19T12:41:32.150Z,32.70
2017-07-19T12:43:59.838Z,32.70
2017-07-19T12:46:27.380Z,32.80
2017-07-19T12:48:54.909Z,32.80
2017-07-19T12:51:22.454Z,32.80
2017-07-19T12:53:49.955Z,32.80
2017-07-19T12:56:17.449Z,32.80
2017-07-19T12:58:44.938Z,32.80
2017-07-19T13:01:12.425Z,32.80
2017-07-19T13:03:39.931Z,32.80
2017-07-19T13:06:07.547Z,32.80
2017-07-19T13:08:35.035Z,32.90
2017-07-19T13:11:02.532Z,32.90
2017-07-19T13:13:30.044Z,32.90
2017-07-19T13:15:59.413Z,32.90
2017-07-19T13:18:26.952Z,33.00
2017-07-19T13:20:54.476Z,33.00
2017-07-19T13:23:21.958Z,33.00
2017-07-19T13:25:49.442Z,33.10
2017-07-19T13:28:17.021Z,33.10
2017-07-19T13:30:44.533Z,33.10
2017-07-19T13:33:12.437Z,33.20
2017-07-19T13:35:39.969Z,33.20
2017-07-19T13:38:07.497Z,33.20
2017-07-19T13:40:35.173Z,33.30
2017-07-19T13:43:03.227Z,33.40
2017-07-19T13:45:30.720Z,33.40
2017-07-19T13:47:58.226Z,33.50
2017-07-19T13:50:26.767Z,33.50
2017-07-19T13:52:54.228Z,33.50
2017-07-19T13:55:21.783Z,33.50
2017-07-19T13:57:49.535Z,33.50
2017-07-19T14:00:17.035Z,33.50
2017-07-19T14:02:44.535Z,33.60
2017-07-19T14:05:12.463Z,33.60
2017-07-19T14:07:39.980Z,33.60
2017-07-19T14:10:07.494Z,33.70
2017-07-19T14:12:35.002Z,33.70
2017-07-19T14:15:02.888Z,33.80
2017-07-19T14:17:30.383Z,33.80
2017-07-19T14:19:57.923Z,33.80
2017-07-19T14:22:25.434Z,33.90
2017-07-19T14:24:52.906Z,34.00
2017-07-19T14:27:20.849Z,34.10
2017-07-19T14:29:48.343Z,34.10
2017-07-19T14:32:16.245Z,34.20
2017-07-19T14:34:45.091Z,34.20
2017-07-19T14:37:12.573Z,34.30
2017-07-19T14:39:40.089Z,34.30
2017-07-19T14:42:07.648Z,34.40
2017-07-19T14:44:35.202Z,34.40
2017-07-19T14:47:02.729Z,34.40
2017-07-19T14:49:30.621Z,34.30
2017-07-19T14:51:58.130Z,34.30
2017-07-19T14:54:25.770Z,34.40
2017-07-19T14:56:53.910Z,34.40
2017-07-19T14:59:21.941Z,34.40
2017-07-19T15:01:49.447Z,34.40
2017-07-19T15:04:17.484Z,34.10
2017-07-19T15:06:45.821Z,34.00
2017-07-19T15:09:13.389Z,34.00
2017-07-19T15:11:40.942Z,34.00
2017-07-19T15:14:08.528Z,33.90
2017-07-19T15:16:36.040Z,33.80
2017-07-19T15:19:03.565Z,33.80
2017-07-19T15:21:31.061Z,33.60
2017-07-19T15:23:58.537Z,33.50
2017-07-19T15:26:26.503Z,33.50
2017-07-19T15:28:54.028Z,33.50
2017-07-19T15:31:21.530Z,33.30
2017-07-19T15:33:49.197Z,33.40
2017-07-19T15:36:16.774Z,33.40
2017-07-19T15:38:44.661Z,33.50
2017-07-19T15:41:12.663Z,33.40
2017-07-19T15:43:40.150Z,33.40
2017-07-19T15:46:07.639Z,33.30
2017-07-19T15:48:35.188Z,33.20
2017-07-19T15:51:02.731Z,33.10
2017-07-19T15:53:30.227Z,33.10
2017-07-19T15:55:57.926Z,32.90
2017-07-19T15:58:25.437Z,32.80
2017-07-19T16:00:52.949Z,32.60
2017-07-19T16:03:21.033Z,32.50
2017-07-19T16:05:48.510Z,32.50
2017-07-19T16:08:16.015Z,32.30
2017-07-19T16:10:43.532Z,32.20
2017-07-19T16:13:10.987Z,32.00
2017-07-19T16:15:39.152Z,31.80
2017-07-19T16:18:07.216Z,31.40
2017-07-19T16:20:35.115Z,31.30
2017-07-19T16:23:02.657Z,31.30
2017-07-19T16:25:30.538Z,30.80
2017-07-19T16:27:58.436Z,30.70
2017-07-19T16:30:25.957Z,30.70
2017-07-19T16:32:53.853Z,30.60
2017-07-19T16:35:21.369Z,30.60
2017-07-19T16:37:48.855Z,30.50
2017-07-19T16:40:16.761Z,30.50
2017-07-19T16:42:44.378Z,30.50
2017-07-19T16:45:11.931Z,30.50
2017-07-19T16:47:39.574Z,30.40
2017-07-19T16:50:07.169Z,30.40
2017-07-19T16:52:34.900Z,30.40
2017-07-19T16:55:02.408Z,30.30
2017-07-19T16:57:29.991Z,30.20
2017-07-19T16:59:57.846Z,30.00
2017-07-19T17:02:27.190Z,30.00
2017-07-19T17:04:54.745Z,29.80
2017-07-19T17:07:22.705Z,29.70
2017-07-19T17:09:50.604Z,29.60
2017-07-19T17:12:18.263Z,29.60
2017-07-19T17:14:45.767Z,29.60
2017-07-19T17:17:13.722Z,29.30
2017-07-19T17:19:41.226Z,29.00
2017-07-19T17:22:09.365Z,28.70
2017-07-19T17:24:37.381Z,28.70
2017-07-19T17:27:04.967Z,28.70
2017-07-19T17:29:34.304Z,28.30
2017-07-19T17:32:01.857Z,28.30
2017-07-19T17:34:29.597Z,28.30
2017-07-19T17:36:57.074Z,28.20
2017-07-19T17:39:24.760Z,28.10
2017-07-19T17:41:52.278Z,28.00
2017-07-19T17:44:20.303Z,28.00
2017-07-19T17:46:47.817Z,28.00
2017-07-19T17:49:15.290Z,28.00
2017-07-19T17:51:43.233Z,28.00
2017-07-19T17:54:10.766Z,28.00
2017-07-19T17:56:38.260Z,27.90
2017-07-19T17:59:05.748Z,27.90
2017-07-19T18:01:33.681Z,27.80
2017-07-19T18:04:01.163Z,27.80
2017-07-19T18:06:28.650Z,27.80
2017-07-19T18:08:56.592Z,27.80
2017-07-19T18:11:24.342Z,27.80
2017-07-19T18:13:52.548Z,27.90
2017-07-19T18:16:20.084Z,27.90
2017-07-19T18:18:47.579Z,27.90
2017-07-19T18:21:15.474Z,27.90
2017-07-19T18:23:43.377Z,27.90
2017-07-19T18:26:10.864Z,27.90
2017-07-19T18:28:38.345Z,27.90
2017-07-19T18:31:05.958Z,27.90
2017-07-19T18:33:34.229Z,27.90
2017-07-19T18:36:01.727Z,27.80
2017-07-19T18:38:29.339Z,27.80
2017-07-19T18:40:57.236Z,27.80
2017-07-19T18:43:24.732Z,27.80
2017-07-19T18:45:52.256Z,27.80
2017-07-19T18:48:19.757Z,27.70
2017-07-19T18:50:47.211Z,27.70
2017-07-19T18:53:14.792Z,27.70
2017-07-19T18:55:42.281Z,27.70
2017-07-19T18:58:10.010Z,27.60
2017-07-19T19:00:37.989Z,27.60
2017-07-19T19:03:05.596Z,27.60
2017-07-19T19:05:33.564Z,27.60
2017-07-19T19:08:01.427Z,27.60
2017-07-19T19:10:28.994Z,27.60
2017-07-19T19:12:56.514Z,27.50
2017-07-19T19:15:24.076Z,27.50
2017-07-19T19:17:51.536Z,27.50
2017-07-19T19:20:19.038Z,27.50
2017-07-19T19:22:46.577Z,27.40
2017-07-19T19:25:14.083Z,27.40
2017-07-19T19:27:42.308Z,27.30
2017-07-19T19:30:10.045Z,27.30
2017-07-19T19:32:37.687Z,27.30
2017-07-19T19:35:05.943Z,27.30
2017-07-19T19:37:33.530Z,27.20
2017-07-19T19:40:01.135Z,27.20
2017-07-19T19:42:28.860Z,27.20
2017-07-19T19:44:57.157Z,27.00
2017-07-19T19:47:25.062Z,27.00
2017-07-19T19:49:52.537Z,27.00
2017-07-19T19:52:20.044Z,27.00
2017-07-19T19:54:47.887Z,27.00
2017-07-19T19:57:15.811Z,26.90
2017-07-19T19:59:43.669Z,26.80
2017-07-19T20:02:11.812Z,26.80
2017-07-19T20:04:39.275Z,26.80
2017-07-19T20:07:06.773Z,26.80
2017-07-19T20:09:34.683Z,26.80
2017-07-19T20:12:02.162Z,26.80
2017-07-19T20:14:29.666Z,26.70
2017-07-19T20:16:57.567Z,26.70
2017-07-19T20:19:25.243Z,26.70
2017-07-19T20:21:52.705Z,26.70
2017-07-19T20:24:20.268Z,26.60
2017-07-19T20:26:47.726Z,26.60
2017-07-19T20:29:15.195Z,26.60
2017-07-19T20:31:42.707Z,26.60
2017-07-19T20:34:10.476Z,26.50
2017-07-19T20:36:38.058Z,26.50
2017-07-19T20:39:05.922Z,26.40
2017-07-19T20:41:33.832Z,26.40
2017-07-19T20:44:01.321Z,26.40
2017-07-19T20:46:29.102Z,26.30
2017-07-19T20:48:56.678Z,26.30
2017-07-19T20:51:24.166Z,26.20
2017-07-19T20:53:52.013Z,26.20
2017-07-19T20:56:19.858Z,26.20
2017-07-19T20:58:47.341Z,26.20
2017-07-19T21:01:14.864Z,26.10
2017-07-19T21:03:42.570Z,26.10
2017-07-19T21:06:10.021Z,26.10
2017-07-19T21:08:37.492Z,26.10
2017-07-19T21:11:04.980Z,26.00
2017-07-19T21:13:32.834Z,26.00
2017-07-19T21:16:00.278Z,26.00
2017-07-19T21:18:27.798Z,26.00
2017-07-19T21:20:55.268Z,25.90
2017-07-19T21:23:22.713Z,25.90
2017-07-19T21:25:50.448Z,25.90
2017-07-19T21:28:17.897Z,25.90
2017-07-19T21:30:45.348Z,25.80
2017-07-19T21:33:13.448Z,25.80
2017-07-19T21:35:40.898Z,25.80
2017-07-19T21:38:08.346Z,25.70
2017-07-19T21:40:35.853Z,25.70
2017-07-19T21:43:03.721Z,25.70
2017-07-19T21:45:31.570Z,25.60
2017-07-19T21:47:59.080Z,25.60
2017-07-19T21:50:26.532Z,25.60
2017-07-19T21:52:54.064Z,25.60
2017-07-19T21:55:21.543Z,25.50
2017-07-19T21:57:49.000Z,25.40
2017-07-19T22:00:16.841Z,25.30
2017-07-19T22:02:44.337Z,25.30
2017-07-19T22:05:12.185Z,25.20
2017-07-19T22:07:39.641Z,25.20
2017-07-19T22:10:07.133Z,25.10
2017-07-19T22:12:34.981Z,25.10
2017-07-19T22:15:02.452Z,25.10
2017-07-19T22:17:29.978Z,25.00
2017-07-19T22:19:57.445Z,25.00
2017-07-19T22:22:24.912Z,25.00
2017-07-19T22:24:52.399Z,24.90
2017-07-19T22:27:19.855Z,24.90
2017-07-19T22:29:47.315Z,24.80
2017-07-19T22:32:14.839Z,24.80
2017-07-19T22:34:42.359Z,24.80
2017-07-19T22:37:09.819Z,24.70
2017-07-19T22:39:37.329Z,24.70
2017-07-19T22:42:04.795Z,24.60
2017-07-19T22:44:32.223Z,24.60
2017-07-19T22:47:00.124Z,24.50
2017-07-19T22:49:27.574Z,24.50
2017-07-19T22:51:55.033Z,24.40
2017-07-19T22:54:22.537Z,24.40
2017-07-19T22:56:50.002Z,24.40
2017-07-19T22:59:17.581Z,24.30
2017-07-19T23:01:45.073Z,24.30
2017-07-19T23:04:12.929Z,24.30
2017-07-19T23:06:40.386Z,24.30
2017-07-19T23:09:07.923Z,24.20
2017-07-19T23:11:35.396Z,24.20
2017-07-19T23:14:02.832Z,24.20
2017-07-19T23:16:30.343Z,24.20
2017-07-19T23:18:58.193Z,24.20
2017-07-19T23:21:25.684Z,24.20
2017-07-19T23:23:53.605Z,24.10
2017-07-19T23:26:21.075Z,24.10
2017-07-19T23:28:48.534Z,24.10
2017-07-19T23:31:16.055Z,24.10
2017-07-19T23:33:43.907Z,24.10
2017-07-19T23:36:11.399Z,24.10
2017-07-19T23:38:38.889Z,24.10
2017-07-19T23:41:06.352Z,24.10
2017-07-19T23:43:33.875Z,24.00
2017-07-19T23:46:01.751Z,24.00
2017-07-19T23:48:29.584Z,24.00
2017-07-19T23:50:57.112Z,24.00
2017-07-19T23:53:25.259Z,24.00
2017-07-19T23:55:53.096Z,24.00
2017-07-19T23:58:20.600Z,24.00
